Time;durP1;ratioP1;P1;durP2;ratioP2;P2;SDS_P1;SDS_P2;PMS_P1;PMS_P2;Temp;Humidity;BMP_temperature;BMP_pressure;BME280_temperature;BME280_humidity;BME280_pressure;Samples;Min_cycle;Max_cycle;Signal;HPM_P1;HPM_P2
2023/04/20 00:02:21;;;;;;;15.70;8.70;;;;;;;10.76;87.54;100657.66;107609;1251;99821;-64
2023/04/20 00:04:51;;;;;;;15.90;7.30;;;;;;;10.76;87.70;100658.68;107736;1251;99126;-64
2023/04/20 00:07:20;;;;;;;32.10;8.00;;;;;;;10.77;87.60;100658.60;107623;1251;111130;-64
2023/04/20 00:09:48;;;;;;;27.60;8.10;;;;;;;10.77;87.93;100655.42;107769;1251;109500;-65
2023/04/20 00:12:17;;;;;;;16.70;7.70;;;;;;;10.76;88.06;100652.26;107754;1251;107833;-65
2023/04/20 00:14:46;;;;;;;21.70;7.70;;;;;;;10.75;88.21;100655.54;107625;1253;99320;-66
2023/04/20 00:17:14;;;;;;;21.30;7.10;;;;;;;10.72;88.31;100653.90;107901;1249;100824;-66
2023/04/20 00:19:43;;;;;;;27.30;7.70;;;;;;;10.69;88.54;100653.30;107723;1250;112604;-66
2023/04/20 00:22:12;;;;;;;22.10;7.50;;;;;;;10.68;88.41;100654.26;107571;1250;109056;-66
2023/04/20 00:24:40;;;;;;;17.80;7.90;;;;;;;10.69;88.46;100654.52;107655;1250;108462;-66
2023/04/20 00:27:09;;;;;;;21.90;9.10;;;;;;;10.70;88.51;100651.35;107920;1251;99155;-65
2023/04/20 00:29:38;;;;;;;25.60;7.00;;;;;;;10.69;88.30;100647.21;107868;1251;99752;-64
2023/04/20 00:32:06;;;;;;;18.80;7.60;;;;;;;10.68;88.55;100650.30;107790;1251;112388;-65
2023/04/20 00:34:35;;;;;;;15.80;7.00;;;;;;;10.68;88.64;100646.92;107674;1251;109540;-64
2023/04/20 00:37:05;;;;;;;17.40;7.80;;;;;;;10.68;88.84;100652.25;107623;1251;108310;-66
2023/04/20 00:39:33;;;;;;;21.60;8.30;;;;;;;10.68;88.87;100647.06;107680;1253;99038;-64
2023/04/20 00:42:07;;;;;;;19.80;7.60;;;;;;;10.68;88.79;100646.33;107652;1250;99048;-65
2023/04/20 00:44:35;;;;;;;19.50;7.50;;;;;;;10.66;88.48;100644.52;107755;1254;113337;-66
2023/04/20 00:47:04;;;;;;;18.60;7.70;;;;;;;10.67;88.73;100641.61;107624;1250;109815;-64
2023/04/20 00:49:33;;;;;;;20.30;7.10;;;;;;;10.68;88.86;100637.91;107797;1250;105812;-68
2023/04/20 00:52:02;;;;;;;18.60;7.20;;;;;;;10.68;88.85;100635.75;107931;1251;99180;-68
2023/04/20 00:54:31;;;;;;;19.60;8.10;;;;;;;10.68;88.82;100636.02;107850;1251;99034;-66
2023/04/20 00:57:00;;;;;;;16.60;6.50;;;;;;;10.67;88.85;100633.93;107736;1251;114018;-65
2023/04/20 00:59:29;;;;;;;20.30;6.40;;;;;;;10.65;88.68;100636.39;107772;1251;109525;-65
2023/04/20 01:01:58;;;;;;;13.40;6.90;;;;;;;10.64;88.85;100631.60;107897;1253;108441;-64
2023/04/20 01:04:28;;;;;;;19.90;6.80;;;;;;;10.64;89.00;100631.05;107921;1251;99178;-64
2023/04/20 01:06:58;;;;;;;19.10;7.10;;;;;;;10.64;89.00;100627.55;107913;1251;99710;-65
2023/04/20 01:09:28;;;;;;;23.30;7.30;;;;;;;10.63;88.93;100626.84;107940;1251;113176;-66
2023/04/20 01:11:56;;;;;;;13.10;7.50;;;;;;;10.63;89.09;100627.96;107952;1251;108994;-65
2023/04/20 01:14:25;;;;;;;21.40;7.30;;;;;;;10.62;88.86;100627.29;107647;1251;108397;-66
2023/04/20 01:16:54;;;;;;;17.20;7.00;;;;;;;10.64;89.13;100630.73;107615;1249;99166;-64
2023/04/20 01:19:23;;;;;;;15.50;7.70;;;;;;;10.63;88.96;100628.17;107684;1251;99823;-65
2023/04/20 01:21:51;;;;;;;22.00;7.80;;;;;;;10.62;89.09;100629.00;107756;1251;112570;-65
2023/04/20 01:24:20;;;;;;;19.50;6.50;;;;;;;10.60;89.17;100624.98;107632;1251;110023;-64
2023/04/20 01:26:48;;;;;;;24.00;7.60;;;;;;;10.61;89.24;100623.48;107699;1251;108545;-63
2023/04/20 01:29:16;;;;;;;16.90;7.00;;;;;;;10.60;89.28;100622.54;107619;1251;99182;-64
2023/04/20 01:31:46;;;;;;;22.30;6.50;;;;;;;10.59;89.17;100617.58;107940;1250;99029;-65
2023/04/20 01:34:16;;;;;;;22.00;6.90;;;;;;;10.58;89.61;100617.30;107917;1251;113781;-65
2023/04/20 01:36:45;;;;;;;16.00;7.10;;;;;;;10.55;89.69;100615.48;107934;1253;108672;-65
2023/04/20 01:39:14;;;;;;;19.40;6.70;;;;;;;10.54;90.14;100614.76;107603;1251;108104;-65
2023/04/20 01:41:43;;;;;;;19.00;7.60;;;;;;;10.54;90.15;100607.84;107620;1251;99201;-65
2023/04/20 01:44:11;;;;;;;22.10;6.80;;;;;;;10.54;90.20;100609.95;107673;1252;99328;-64
2023/04/20 01:46:40;;;;;;;20.90;6.80;;;;;;;10.53;90.46;100607.16;107659;1251;112890;-66
2023/04/20 01:49:09;;;;;;;15.90;7.90;;;;;;;10.52;90.97;100608.69;107660;1251;110436;-66
2023/04/20 01:51:37;;;;;;;23.60;6.80;;;;;;;10.50;91.24;100606.20;107717;1251;107640;-64
2023/04/20 01:54:06;;;;;;;22.70;6.80;;;;;;;10.48;91.83;100604.23;107555;1250;99057;-64
2023/04/20 01:56:34;;;;;;;18.40;6.60;;;;;;;10.46;91.99;100602.08;107669;1251;99329;-64
2023/04/20 01:59:03;;;;;;;17.10;6.70;;;;;;;10.45;92.19;100600.91;107644;1251;112800;-64
2023/04/20 02:01:32;;;;;;;23.20;8.00;;;;;;;10.44;92.58;100599.93;107786;1250;109201;-64
2023/04/20 02:04:00;;;;;;;30.70;7.60;;;;;;;10.42;92.30;100601.39;107609;1253;107824;-64
2023/04/20 02:06:30;;;;;;;17.60;6.00;;;;;;;10.41;92.30;100597.54;107615;1251;99174;-63
2023/04/20 02:08:58;;;;;;;30.80;6.90;;;;;;;10.41;92.59;100598.42;107783;1251;99231;-66
2023/04/20 02:11:27;;;;;;;16.30;6.10;;;;;;;10.41;93.07;100596.27;107743;1251;112075;-65
2023/04/20 02:13:58;;;;;;;16.30;6.10;;;;;;;10.38;92.84;100592.19;107772;1251;110201;-65
2023/04/20 02:16:30;;;;;;;9.60;4.70;;;;;;;10.39;93.57;100593.58;107736;1250;108591;-65
2023/04/20 02:18:59;;;;;;;19.10;5.90;;;;;;;10.38;93.49;100591.73;107769;1251;99260;-63
2023/04/20 02:21:28;;;;;;;17.60;5.30;;;;;;;10.38;93.82;100591.48;107665;1250;99273;-65
2023/04/20 02:23:57;;;;;;;19.00;5.10;;;;;;;10.36;93.88;100591.33;107740;1251;112751;-64
2023/04/20 02:26:26;;;;;;;18.30;6.00;;;;;;;10.34;94.09;100588.08;107876;1251;109275;-64
2023/04/20 02:28:55;;;;;;;12.90;4.80;;;;;;;10.34;94.70;100588.59;107588;1250;107769;-64
2023/04/20 02:31:24;;;;;;;17.10;5.60;;;;;;;10.32;94.86;100592.49;107628;1251;99244;-64
2023/04/20 02:33:53;;;;;;;19.40;4.80;;;;;;;10.32;95.59;100591.27;107657;1249;99784;-65
2023/04/20 02:36:22;;;;;;;14.70;4.40;;;;;;;10.28;95.29;100592.67;107690;1251;112565;-65
2023/04/20 02:38:50;;;;;;;18.50;4.80;;;;;;;10.27;95.69;100593.33;107653;1250;109297;-66
2023/04/20 02:41:19;;;;;;;15.00;4.40;;;;;;;10.26;95.91;100594.38;107732;1251;109491;-63
2023/04/20 02:43:48;;;;;;;14.60;5.00;;;;;;;10.25;96.36;100595.70;107674;1251;99263;-65
2023/04/20 02:46:17;;;;;;;24.20;5.90;;;;;;;10.23;96.51;100597.08;107839;1251;99690;-67
2023/04/20 02:48:46;;;;;;;18.70;4.80;;;;;;;10.23;96.53;100600.86;107605;1251;112179;-64
2023/04/20 02:51:14;;;;;;;20.60;5.20;;;;;;;10.23;97.08;100598.76;107751;1251;110204;-63
2023/04/20 02:53:45;;;;;;;17.00;5.20;;;;;;;10.23;97.06;100600.73;107630;1250;108102;-65
2023/04/20 02:56:20;;;;;;;16.00;5.70;;;;;;;10.23;97.83;100600.00;107823;1249;99203;-63
2023/04/20 02:58:54;;;;;;;12.70;5.00;;;;;;;10.20;97.99;100602.03;107895;1248;99335;-64
2023/04/20 03:01:41;;;;;;;15.40;5.20;;;;;;;10.19;97.69;100601.09;107752;1250;113196;-64
2023/04/20 03:04:15;;;;;;;18.00;4.90;;;;;;;10.18;97.98;100600.92;107667;1251;109195;-65
2023/04/20 03:06:50;;;;;;;14.90;5.30;;;;;;;10.19;98.88;100600.73;107729;1251;106316;-65
2023/04/20 03:09:24;;;;;;;13.70;5.90;;;;;;;10.16;98.81;100601.48;107685;1251;99172;-65
2023/04/20 03:12:11;;;;;;;36.00;19.00;;;;;;;10.16;99.18;100602.05;107647;1250;99166;-65
2023/04/20 03:14:58;;;;;;;9.70;4.00;;;;;;;10.14;99.54;100597.39;107630;1253;113088;-63
2023/04/20 03:17:51;;;;;;;13.70;3.90;;;;;;;10.12;99.99;100599.69;107655;1251;108831;-63
2023/04/20 03:20:20;;;;;;;13.50;4.00;;;;;;;10.11;100.00;100601.38;107652;1250;107664;-64
2023/04/20 03:22:48;;;;;;;12.80;4.00;;;;;;;10.11;100.00;100602.30;107720;1250;99075;-65
2023/04/20 03:25:18;;;;;;;9.90;3.50;;;;;;;10.11;100.00;100605.01;107677;1253;100388;-64
2023/04/20 03:28:00;;;;;;;11.20;3.70;;;;;;;10.13;100.00;100606.99;107687;1253;112687;-65
2023/04/20 03:30:30;;;;;;;5.60;3.10;;;;;;;10.10;100.00;100606.35;107720;1251;109515;-65
2023/04/20 03:33:06;;;;;;;9.60;2.60;;;;;;;10.06;100.00;100609.89;107678;1250;108123;-64
2023/04/20 03:35:38;;;;;;;4.90;2.50;;;;;;;10.02;100.00;100608.40;107638;1251;99154;-64
2023/04/20 03:38:07;;;;;;;5.10;3.00;;;;;;;10.00;100.00;100606.70;107774;1250;99085;-63
2023/04/20 03:40:37;;;;;;;3.80;1.90;;;;;;;9.98;100.00;100611.29;107775;1251;113341;-64
2023/04/20 03:43:11;;;;;;;6.10;2.30;;;;;;;9.96;100.00;100611.36;107590;1256;108914;-64
2023/04/20 03:45:40;;;;;;;7.10;2.40;;;;;;;9.92;100.00;100617.39;107788;1250;107964;-64
2023/04/20 03:48:09;;;;;;;11.90;2.40;;;;;;;9.92;100.00;100614.94;107627;1251;99177;-64
2023/04/20 03:50:37;;;;;;;5.70;2.60;;;;;;;9.91;100.00;100614.46;107631;1251;99175;-65
2023/04/20 03:53:06;;;;;;;5.10;2.50;;;;;;;9.90;100.00;100616.52;107674;1251;113204;-65
2023/04/20 03:55:38;;;;;;;7.40;2.70;;;;;;;9.87;100.00;100618.73;107678;1250;109229;-65
2023/04/20 03:58:08;;;;;;;6.50;3.00;;;;;;;9.85;100.00;100621.59;107741;1256;108376;-64
2023/04/20 04:01:05;;;;;;;5.30;2.80;;;;;;;9.83;100.00;100617.82;107683;1250;99220;-65
2023/04/20 04:03:35;;;;;;;10.30;2.90;;;;;;;9.82;100.00;100621.31;107822;1249;99707;-65
2023/04/20 04:06:04;;;;;;;5.80;2.40;;;;;;;9.81;100.00;100624.79;107672;1250;113587;-63
2023/04/20 04:08:33;;;;;;;6.90;3.60;;;;;;;9.82;100.00;100621.88;107795;1250;108700;-69
2023/04/20 04:11:04;;;;;;;9.50;2.80;;;;;;;9.83;100.00;100623.40;107692;1253;107608;-65
2023/04/20 04:13:33;;;;;;;5.80;2.30;;;;;;;9.82;100.00;100627.76;107627;1250;99343;-65
2023/04/20 04:16:05;;;;;;;5.30;2.10;;;;;;;9.82;100.00;100625.59;107719;1250;99048;-65
2023/04/20 04:18:34;;;;;;;3.20;2.20;;;;;;;9.85;100.00;100625.20;107776;1251;113593;-65
2023/04/20 04:21:09;;;;;;;11.60;2.80;;;;;;;9.86;100.00;100629.19;107690;1250;109074;-66
2023/04/20 04:23:41;;;;;;;3.60;2.50;;;;;;;9.85;100.00;100633.10;107753;1255;107495;-66
2023/04/20 04:26:30;;;;;;;3.00;2.20;;;;;;;9.84;100.00;100632.94;107430;1250;99176;-66
2023/04/20 04:29:00;;;;;;;4.70;2.30;;;;;;;9.85;100.00;100636.98;107637;1251;99237;-65
2023/04/20 04:31:31;;;;;;;3.90;2.20;;;;;;;9.86;100.00;100635.27;107682;1250;113860;-65
2023/04/20 04:34:05;;;;;;;4.90;2.30;;;;;;;9.89;100.00;100639.73;107564;1250;109262;-65
2023/04/20 04:36:38;;;;;;;;;;;;;;;9.90;100.00;100643.27;107626;1251;107342;-65
2023/04/20 04:39:12;;;;;;;6.30;3.20;;;;;;;9.90;100.00;100640.31;107694;1251;99162;-65
2023/04/20 04:41:44;;;;;;;6.70;3.20;;;;;;;9.90;100.00;100645.23;107741;1250;99711;-66
2023/04/20 04:44:20;;;;;;;5.10;3.40;;;;;;;9.88;100.00;100652.90;107637;1251;114413;-67
2023/04/20 04:46:51;;;;;;;7.60;3.20;;;;;;;9.87;100.00;100653.64;107607;1251;109118;-66
2023/04/20 04:49:19;;;;;;;3.60;2.40;;;;;;;9.87;100.00;100659.23;107643;1251;109203;-66
2023/04/20 04:51:48;;;;;;;7.50;3.50;;;;;;;9.87;100.00;100660.08;107770;1250;99046;-66
2023/04/20 04:54:16;;;;;;;6.90;3.20;;;;;;;9.88;100.00;100665.20;107554;1251;99053;-66
2023/04/20 04:56:45;;;;;;;8.00;3.40;;;;;;;9.87;100.00;100665.29;107635;1251;113534;-66
2023/04/20 04:59:13;;;;;;;14.20;4.40;;;;;;;9.88;100.00;100665.06;107626;1250;109543;-65
2023/04/20 05:01:41;;;;;;;7.20;4.10;;;;;;;9.89;100.00;100670.76;107605;1250;107954;-65
2023/04/20 05:04:10;;;;;;;10.70;4.80;;;;;;;9.89;100.00;100670.92;107581;1249;98922;-65
2023/04/20 05:06:38;;;;;;;9.80;5.20;;;;;;;9.89;100.00;100673.95;107762;1248;99080;-67
2023/04/20 05:09:07;;;;;;;14.40;4.80;;;;;;;9.90;100.00;100676.14;107979;1251;112930;-64
2023/04/20 05:11:35;;;;;;;10.30;5.10;;;;;;;9.90;100.00;100676.55;107940;1248;109870;-68
2023/04/20 05:14:04;;;;;;;11.20;5.50;;;;;;;9.88;99.98;100677.61;107689;1251;107634;-66
2023/04/20 05:16:33;;;;;;;15.70;5.10;;;;;;;9.86;99.82;100674.89;107794;1249;99160;-66
2023/04/20 05:19:02;;;;;;;13.90;6.70;;;;;;;9.85;99.43;100681.20;107757;1250;99723;-65
2023/04/20 05:21:31;;;;;;;18.30;5.70;;;;;;;9.86;99.70;100684.41;107801;1248;113980;-65
2023/04/20 05:23:59;;;;;;;16.90;5.10;;;;;;;9.87;99.47;100687.34;107640;1249;110822;-65
2023/04/20 05:26:28;;;;;;;19.40;6.10;;;;;;;9.89;99.10;100690.77;107932;1248;108096;-65
2023/04/20 05:28:57;;;;;;;17.50;6.00;;;;;;;9.93;98.67;100696.90;107562;1250;99130;-67
2023/04/20 05:31:28;;;;;;;24.10;5.90;;;;;;;9.96;97.90;100697.86;107634;1251;99186;-65
2023/04/20 05:33:56;;;;;;;19.30;6.30;;;;;;;10.00;97.42;100701.95;107655;1250;112757;-66
2023/04/20 05:36:26;;;;;;;19.30;6.50;;;;;;;10.03;96.10;100701.34;107735;1249;109619;-67
2023/04/20 05:38:54;;;;;;;21.60;5.80;;;;;;;10.04;95.60;100706.46;107527;1250;108478;-65
2023/04/20 05:41:26;;;;;;;18.00;5.70;;;;;;;10.02;95.33;100709.30;107698;1248;99263;-70
2023/04/20 05:43:55;;;;;;;25.90;5.70;;;;;;;10.02;95.23;100711.50;107539;1250;99697;-66
2023/04/20 05:46:24;;;;;;;28.50;7.10;;;;;;;10.00;94.83;100711.85;107752;1249;111847;-66
2023/04/20 05:48:53;;;;;;;21.40;5.00;;;;;;;9.96;95.03;100714.35;107771;1250;108985;-67
2023/04/20 05:51:21;;;;;;;20.40;5.70;;;;;;;9.94;95.01;100717.60;107659;1251;107846;-65
2023/04/20 05:53:49;;;;;;;28.90;6.50;;;;;;;9.93;95.25;100719.08;107543;1250;99259;-65
2023/04/20 05:56:18;;;;;;;22.40;6.10;;;;;;;9.93;95.05;100722.70;107612;1249;99093;-64
2023/04/20 05:58:47;;;;;;;23.40;6.40;;;;;;;9.91;94.99;100728.17;107932;1248;113199;-66
2023/04/20 06:01:16;;;;;;;25.70;6.30;;;;;;;9.93;95.42;100729.89;107875;1248;109102;-65
2023/04/20 06:03:45;;;;;;;23.60;6.90;;;;;;;9.94;95.28;100735.16;107920;1249;108169;-66
2023/04/20 06:06:14;;;;;;;9.40;4.50;;;;;;;9.96;95.09;100732.23;107909;1249;99178;-67
2023/04/20 06:08:44;;;;;;;19.80;4.90;;;;;;;10.00;94.77;100731.77;107631;1248;99159;-67
2023/04/20 06:11:12;;;;;;;22.50;5.10;;;;;;;10.01;94.50;100730.73;107581;1251;111458;-66
2023/04/20 06:13:41;;;;;;;20.40;5.20;;;;;;;10.04;94.53;100732.10;107638;1250;109320;-65
2023/04/20 06:16:09;;;;;;;26.10;5.20;;;;;;;10.07;94.37;100734.52;107650;1250;107558;-66
2023/04/20 06:18:39;;;;;;;26.00;4.60;;;;;;;10.09;94.29;100733.84;107757;1251;99179;-65
2023/04/20 06:21:10;;;;;;;21.20;5.50;;;;;;;10.13;94.22;100736.02;107730;1251;99269;-64
2023/04/20 06:23:39;;;;;;;21.70;5.30;;;;;;;10.17;94.45;100736.75;107641;1248;113131;-64
2023/04/20 06:26:09;;;;;;;26.10;8.30;;;;;;;10.23;94.46;100738.55;107861;1249;109516;-66
2023/04/20 06:28:37;;;;;;;15.50;5.20;;;;;;;10.32;94.58;100737.37;107639;1254;107514;-66
2023/04/20 06:31:06;;;;;;;23.80;5.50;;;;;;;10.39;94.19;100734.08;107746;1250;99229;-64
2023/04/20 06:33:35;;;;;;;21.80;5.30;;;;;;;10.46;94.11;100738.02;107711;1250;99279;-66
2023/04/20 06:36:07;;;;;;;27.60;5.70;;;;;;;10.54;93.94;100740.20;107743;1250;112920;-66
2023/04/20 06:38:36;;;;;;;18.60;4.90;;;;;;;10.58;93.05;100739.63;107781;1255;110191;-65
2023/04/20 06:41:05;;;;;;;16.60;4.80;;;;;;;10.62;93.24;100745.15;107685;1250;107659;-67
2023/04/20 06:43:33;;;;;;;32.50;4.80;;;;;;;10.69;93.21;100745.45;107720;1255;99270;-64
2023/04/20 06:46:02;;;;;;;19.70;5.30;;;;;;;10.74;92.80;100747.85;107702;1250;99877;-67
2023/04/20 06:48:31;;;;;;;29.30;6.60;;;;;;;10.77;92.14;100744.70;107695;1249;113200;-66
2023/04/20 06:51:00;;;;;;;21.30;5.10;;;;;;;10.80;91.52;100751.69;107709;1249;110196;-66
2023/04/20 06:53:29;;;;;;;20.60;5.20;;;;;;;10.82;91.14;100752.95;107870;1252;106846;-65
2023/04/20 06:55:57;;;;;;;21.80;4.70;;;;;;;10.85;91.07;100751.19;107644;1248;98920;-65
2023/04/20 06:58:25;;;;;;;24.20;7.70;;;;;;;10.91;90.22;100752.81;107929;1253;99259;-67
2023/04/20 07:00:54;;;;;;;29.10;8.90;;;;;;;10.94;89.32;100752.03;107644;1248;112645;-67
2023/04/20 07:03:23;;;;;;;33.30;5.90;;;;;;;10.93;86.82;100753.50;107623;1248;109836;-68
2023/04/20 07:05:52;;;;;;;31.40;6.00;;;;;;;10.89;86.93;100758.75;107764;1256;107669;-66
2023/04/20 07:08:20;;;;;;;29.60;5.10;;;;;;;10.90;86.96;100756.09;107644;1250;99157;-66
2023/04/20 07:10:48;;;;;;;31.10;5.10;;;;;;;10.89;85.86;100761.62;107682;1250;99090;-66
2023/04/20 07:13:17;;;;;;;28.60;5.70;;;;;;;10.84;86.74;100763.85;107746;1251;112629;-66
2023/04/20 07:15:46;;;;;;;24.50;5.20;;;;;;;10.85;86.45;100763.62;107728;1249;109481;-66
2023/04/20 07:18:15;;;;;;;21.90;4.40;;;;;;;10.84;86.17;100769.42;107656;1250;106024;-66
2023/04/20 07:20:43;;;;;;;27.70;5.00;;;;;;;10.84;84.84;100764.27;107635;1256;99183;-66
2023/04/20 07:23:12;;;;;;;27.30;4.30;;;;;;;10.82;84.66;100766.18;107674;1248;99094;-65
2023/04/20 07:25:40;;;;;;;26.40;3.80;;;;;;;10.86;84.99;100767.79;107948;1248;113183;-65
2023/04/20 07:28:09;;;;;;;30.80;4.30;;;;;;;10.92;85.06;100771.74;107701;1250;109153;-67
2023/04/20 07:30:38;;;;;;;23.60;4.00;;;;;;;11.03;85.50;100771.66;107767;1248;107203;-67
2023/04/20 07:33:07;;;;;;;38.10;7.00;;;;;;;11.18;86.14;100769.63;107767;1249;99195;-67
2023/04/20 07:35:36;;;;;;;33.00;5.80;;;;;;;11.35;86.26;100766.43;107684;1251;99189;-68
2023/04/20 07:38:04;;;;;;;28.90;4.80;;;;;;;11.52;86.37;100766.25;107788;1248;112858;-66
2023/04/20 07:40:34;;;;;;;29.10;4.50;;;;;;;11.72;86.32;100763.77;107663;1254;110104;-66
2023/04/20 07:43:02;;;;;;;33.00;4.00;;;;;;;11.87;86.11;100761.21;107716;1251;107935;-65
2023/04/20 07:45:31;;;;;;;25.60;5.20;;;;;;;12.01;85.63;100757.98;107724;1250;99235;-65
2023/04/20 07:48:01;;;;;;;28.20;4.50;;;;;;;12.14;84.60;100758.58;107836;1250;99156;-67
2023/04/20 07:50:29;;;;;;;42.50;5.80;;;;;;;12.19;83.87;100756.83;107826;1251;112655;-66
2023/04/20 07:52:58;;;;;;;38.30;5.10;;;;;;;12.26;83.69;100755.42;107829;1250;109780;-65
2023/04/20 07:55:26;;;;;;;31.90;5.00;;;;;;;12.35;83.19;100752.38;107853;1249;106478;-65
2023/04/20 07:57:56;;;;;;;37.00;4.90;;;;;;;12.45;81.94;100753.05;107872;1248;99261;-66
2023/04/20 08:00:25;;;;;;;31.20;4.70;;;;;;;12.44;76.50;100750.66;107317;1248;928733;-65
2023/04/20 08:02:54;;;;;;;24.90;4.20;;;;;;;12.40;76.60;100753.45;107996;1248;113684;-65
2023/04/20 08:05:23;;;;;;;26.40;4.00;;;;;;;12.35;73.06;100745.44;107961;1248;109036;-65
2023/04/20 08:07:52;;;;;;;34.10;4.80;;;;;;;12.23;73.10;100747.86;107991;1248;107755;-66
2023/04/20 08:10:22;;;;;;;25.40;4.30;;;;;;;12.17;73.89;100746.58;107788;1248;99143;-65
2023/04/20 08:12:52;;;;;;;33.20;4.10;;;;;;;12.17;73.77;100747.49;107870;1250;99037;-65
2023/04/20 08:15:20;;;;;;;26.30;5.00;;;;;;;12.19;73.60;100745.14;107686;1250;113241;-66
2023/04/20 08:17:49;;;;;;;32.30;4.20;;;;;;;12.24;71.43;100740.94;107738;1250;109611;-65
2023/04/20 08:20:18;;;;;;;37.30;4.40;;;;;;;12.26;71.78;100748.48;107766;1249;107665;-67
2023/04/20 08:22:48;;;;;;;24.00;4.40;;;;;;;12.30;72.97;100748.10;107698;1250;99154;-67
2023/04/20 08:25:16;;;;;;;33.50;4.30;;;;;;;12.34;73.08;100750.91;107592;1250;99144;-65
2023/04/20 08:27:45;;;;;;;30.90;3.80;;;;;;;12.36;72.72;100750.89;107610;1250;112874;-66
2023/04/20 08:30:15;;;;;;;35.20;4.60;;;;;;;12.35;72.56;100752.76;107628;1250;108998;-66
2023/04/20 08:32:46;;;;;;;32.40;4.30;;;;;;;12.37;73.28;100753.15;107719;1250;108367;-68
2023/04/20 08:35:15;;;;;;;40.60;4.50;;;;;;;12.45;72.95;100753.99;107556;1248;99196;-69
2023/04/20 08:37:47;;;;;;;21.00;3.70;;;;;;;12.45;70.65;100751.33;107764;1250;99046;-66
2023/04/20 08:40:18;;;;;;;27.20;3.90;;;;;;;12.41;70.73;100748.11;107631;1253;112586;-66
2023/04/20 08:42:47;;;;;;;30.00;5.20;;;;;;;12.39;70.26;100744.68;107599;1250;109901;-67
2023/04/20 08:45:16;;;;;;;33.70;5.00;;;;;;;12.36;70.72;100745.66;107687;1250;108276;-66
2023/04/20 08:47:44;;;;;;;34.60;4.90;;;;;;;12.33;70.46;100745.22;107733;1250;99178;-66
2023/04/20 08:50:15;;;;;;;35.80;5.70;;;;;;;12.30;70.37;100743.41;107737;1251;99054;-65
2023/04/20 08:52:44;;;;;;;29.40;4.30;;;;;;;12.25;68.77;100747.86;107780;1250;112816;-67
2023/04/20 08:55:16;;;;;;;35.90;5.20;;;;;;;12.17;68.86;100755.91;107802;1249;108996;-66
2023/04/20 08:57:48;;;;;;;30.30;4.40;;;;;;;12.12;68.90;100757.66;107831;1248;107714;-67
2023/04/20 09:00:18;;;;;;;25.70;4.70;;;;;;;12.07;68.40;100761.55;107630;1249;99054;-64
2023/04/20 09:02:54;;;;;;;31.30;3.90;;;;;;;12.02;68.60;100761.07;107685;1249;99160;-66
2023/04/20 09:05:30;;;;;;;37.40;8.20;;;;;;;12.01;68.23;100760.13;107746;1250;112493;-65
2023/04/20 09:08:00;;;;;;;31.70;3.90;;;;;;;12.02;67.88;100758.94;107771;1250;110063;-65
2023/04/20 09:10:39;;;;;;;37.40;4.50;;;;;;;12.03;68.20;100756.54;107615;1250;108321;-65
2023/04/20 09:13:19;;;;;;;37.10;4.00;;;;;;;12.05;68.22;100757.67;107691;1248;99185;-66
2023/04/20 09:15:48;;;;;;;29.60;4.60;;;;;;;12.05;67.84;100759.39;107872;1250;99050;-66
2023/04/20 09:18:17;;;;;;;22.40;4.30;;;;;;;12.05;66.64;100754.60;107717;1250;112274;-66
2023/04/20 09:20:46;;;;;;;38.80;5.50;;;;;;;11.97;66.89;100755.88;107644;1249;109209;-66
2023/04/20 09:23:16;;;;;;;34.10;5.80;;;;;;;11.95;67.05;100754.12;107757;1250;106711;-67
2023/04/20 09:25:49;;;;;;;33.60;4.60;;;;;;;11.89;67.61;100754.27;107749;1255;99160;-65
2023/04/20 09:28:18;;;;;;;29.70;5.90;;;;;;;11.89;67.85;100754.71;107736;1250;99108;-65
2023/04/20 09:30:49;;;;;;;28.20;5.10;;;;;;;11.90;67.87;100755.96;107672;1250;112639;-68
2023/04/20 09:33:18;;;;;;;28.20;4.10;;;;;;;11.88;67.91;100751.29;107620;1250;109298;-64
2023/04/20 09:35:46;;;;;;;35.40;4.80;;;;;;;11.87;67.44;100755.66;107634;1253;107023;-66
2023/04/20 09:38:16;;;;;;;31.90;4.00;;;;;;;11.88;67.53;100751.43;107681;1250;99196;-66
2023/04/20 09:40:44;;;;;;;31.40;4.10;;;;;;;11.91;67.42;100749.88;107651;1250;99703;-65
2023/04/20 09:43:18;;;;;;;41.70;5.40;;;;;;;11.99;66.80;100748.29;107807;1248;112948;-66
2023/04/20 09:45:47;;;;;;;32.00;5.60;;;;;;;12.09;66.28;100743.80;107928;1248;108371;-65
2023/04/20 09:48:18;;;;;;;36.40;5.60;;;;;;;12.18;65.70;100742.94;107774;1249;108686;-66
2023/04/20 09:50:48;;;;;;;44.10;6.60;;;;;;;12.29;64.94;100737.40;107794;1251;99159;-65
2023/04/20 09:53:19;;;;;;;28.50;5.20;;;;;;;12.36;63.72;100735.83;107884;1248;99704;-65
2023/04/20 09:55:50;;;;;;;32.40;4.30;;;;;;;12.39;64.33;100730.11;107950;1248;113930;-65
2023/04/20 09:58:20;;;;;;;28.40;4.60;;;;;;;12.44;64.70;100731.26;107691;1250;108654;-65
2023/04/20 10:00:49;;;;;;;33.30;4.70;;;;;;;12.48;64.11;100722.80;107636;1250;108731;-66
2023/04/20 10:03:19;;;;;;;30.90;4.00;;;;;;;12.50;65.06;100722.59;107743;1250;99215;-65
2023/04/20 10:05:47;;;;;;;26.20;4.30;;;;;;;12.57;64.49;100717.77;107804;1249;99893;-65
2023/04/20 10:08:19;;;;;;;25.00;4.50;;;;;;;12.61;63.55;100715.90;107680;1250;113650;-64
2023/04/20 10:10:50;;;;;;;27.90;4.50;;;;;;;12.59;63.60;100718.66;107863;1250;109979;-65
2023/04/20 10:13:20;;;;;;;38.80;5.10;;;;;;;12.56;63.93;100721.45;107774;1248;107810;-66
2023/04/20 10:15:49;;;;;;;31.20;4.40;;;;;;;12.56;63.26;100721.30;107919;1249;99267;-66
2023/04/20 10:18:21;;;;;;;33.10;3.70;;;;;;;12.52;62.83;100719.52;107675;1250;99166;-66
2023/04/20 10:21:02;;;;;;;33.50;4.30;;;;;;;12.47;62.70;100723.00;107619;1249;112883;-66
2023/04/20 10:23:31;;;;;;;47.30;4.50;;;;;;;12.44;62.92;100718.84;107893;1248;109591;-66
2023/04/20 10:26:01;;;;;;;29.90;3.80;;;;;;;12.40;62.11;100718.67;107641;1248;107891;-66
2023/04/20 10:28:41;;;;;;;24.10;3.50;;;;;;;12.34;62.65;100720.37;107915;1248;99217;-66
2023/04/20 10:31:12;;;;;;;30.90;4.20;;;;;;;12.31;63.01;100717.88;107884;1249;99045;-65
2023/04/20 10:33:56;;;;;;;40.40;5.20;;;;;;;12.30;62.91;100720.55;107808;1250;112771;-65
2023/04/20 10:36:33;;;;;;;24.80;4.80;;;;;;;12.30;63.00;100721.10;107766;1256;109323;-65
2023/04/20 10:39:20;;;;;;;31.60;4.40;;;;;;;12.34;63.23;100720.71;107623;1249;108741;-67
2023/04/20 10:41:54;;;;;;;52.60;4.60;;;;;;;12.35;62.84;100718.94;107688;1250;99146;-66
2023/04/20 10:44:23;;;;;;;27.90;4.50;;;;;;;12.34;62.43;100721.02;108000;1248;99105;-66
2023/04/20 10:46:52;;;;;;;37.10;4.80;;;;;;;12.32;62.23;100719.61;107657;1249;112554;-66
2023/04/20 10:49:28;;;;;;;33.40;4.30;;;;;;;12.28;61.55;100723.80;107812;1250;108708;-66
2023/04/20 10:51:57;;;;;;;33.50;3.90;;;;;;;12.24;61.49;100722.77;107726;1250;105945;-65
2023/04/20 10:54:26;;;;;;;23.70;3.90;;;;;;;12.20;61.45;100720.63;107752;1250;99276;-66
2023/04/20 10:56:54;;;;;;;29.20;4.40;;;;;;;12.20;60.82;100716.11;107778;1250;99714;-66
2023/04/20 10:59:23;;;;;;;40.00;3.90;;;;;;;12.13;60.89;100718.38;107780;1250;112568;-66
2023/04/20 11:01:52;;;;;;;34.70;5.00;;;;;;;12.04;61.40;100715.66;107782;1250;109029;-65
2023/04/20 11:04:31;;;;;;;36.30;5.60;;;;;;;12.02;61.24;100719.09;107807;1253;107457;-65
2023/04/20 11:07:08;;;;;;;30.50;4.90;;;;;;;12.00;61.38;100721.28;107759;1250;99172;-65
2023/04/20 11:09:41;;;;;;;37.00;5.40;;;;;;;11.99;60.88;100720.13;107764;1251;99713;-66
2023/04/20 11:12:14;;;;;;;32.80;3.90;;;;;;;11.99;60.72;100720.10;107796;1248;113590;-65
2023/04/20 11:14:54;;;;;;;33.20;4.20;;;;;;;12.01;60.55;100715.24;107657;1250;110055;-66
2023/04/20 11:17:33;;;;;;;33.50;4.70;;;;;;;12.02;60.35;100717.25;107622;1249;107905;-67
2023/04/20 11:20:09;;;;;;;34.90;5.30;;;;;;;12.04;60.87;100714.77;107717;1251;99163;-67
2023/04/20 11:22:39;;;;;;;28.00;4.00;;;;;;;12.05;60.91;100710.35;107805;1249;99823;-66